Salt Lake City, Utah
Current Conditions -  °F | °C
As of 4:53 AM on Tuesday 27 Jan 2015 (Local Time) from KSLC Reporting Station
Haze Haze  
Wind Chill: 25°   Ceiling: Unl
Heat Index: 30°   Visibility: 4mi
Dew Point: 29°   Wind: 5mph
Humidity: 96%   Direction: 160°SSE
Pressure: 30.18"   Gusts: NA
Location:  40.76°N, 111.88°W
Report Text: KSLC 271153Z 16004KT 4SM BR CLR M01/M02 A3018 RMK AO2 SLP222 T10111017 10017 21017 58000
Loading
Personal Weather Stations






























Interactive Weather Map New forecast layout! Learn more

10-Day Weather Forecast

Advertisements
Track Severe Weather on mobile